createdAt,value
2023-04-02T00:00:02.290Z,43.4
2023-04-02T00:05:01.853Z,44.3
2023-04-02T00:15:01.103Z,44.7
2023-04-02T00:20:01.579Z,44.9
2023-04-02T00:25:02.292Z,45.0
2023-04-02T00:35:01.657Z,45.3
2023-04-02T00:40:01.999Z,45.4
2023-04-02T00:45:01.277Z,45.5
2023-04-02T00:50:01.305Z,45.6
2023-04-02T00:55:01.526Z,45.7
2023-04-02T01:00:01.302Z,45.7
2023-04-02T01:05:01.661Z,45.8
2023-04-02T01:15:01.053Z,45.9
2023-04-02T01:20:01.925Z,45.9
2023-04-02T01:25:01.972Z,46.0
2023-04-02T01:30:01.532Z,45.9
2023-04-02T01:35:01.973Z,46.0
2023-04-02T01:45:00.326Z,46.0
2023-04-02T01:55:01.286Z,46.0
2023-04-02T02:00:01.073Z,46.0
2023-04-02T02:05:02.301Z,46.1
2023-04-02T02:10:01.687Z,46.1
2023-04-02T02:15:01.149Z,46.1
2023-04-02T02:20:01.983Z,46.1
2023-04-02T02:25:01.302Z,46.1
2023-04-02T02:30:01.513Z,46.1
2023-04-02T02:35:01.518Z,46.2
2023-04-02T02:40:01.260Z,46.2
2023-04-02T02:45:01.500Z,46.2
2023-04-02T02:55:01.151Z,46.2
2023-04-02T03:00:01.438Z,46.3
2023-04-02T03:05:01.038Z,46.3
2023-04-02T03:15:00.346Z,46.3
2023-04-02T03:20:01.033Z,46.4
2023-04-02T03:25:01.560Z,46.4
2023-04-02T03:35:01.090Z,46.5
2023-04-02T03:40:02.323Z,46.5
2023-04-02T03:45:00.977Z,46.6
2023-04-02T03:55:01.596Z,46.6
2023-04-02T04:00:05.311Z,46.6
2023-04-02T04:05:01.483Z,46.7
2023-04-02T04:10:01.982Z,46.6
2023-04-02T04:15:01.149Z,46.6
2023-04-02T04:25:01.505Z,46.7
2023-04-02T04:30:01.297Z,46.7
2023-04-02T04:35:01.114Z,46.7
2023-04-02T04:40:01.160Z,46.8
2023-04-02T04:45:01.277Z,46.8
2023-04-02T04:50:01.462Z,46.8
2023-04-02T04:55:01.386Z,46.9
2023-04-02T05:05:01.183Z,46.9
2023-04-02T05:10:02.221Z,46.9
2023-04-02T05:15:01.091Z,47.0
2023-04-02T05:20:03.074Z,47.0
2023-04-02T05:25:04.299Z,47.0
2023-04-02T05:30:02.478Z,47.0
2023-04-02T05:35:01.921Z,47.0
2023-04-02T05:45:01.523Z,47.0
2023-04-02T05:50:01.075Z,47.0
2023-04-02T05:55:00.393Z,47.0
2023-04-02T06:00:02.039Z,46.9
2023-04-02T06:05:01.003Z,46.8
2023-04-02T06:10:01.452Z,46.9
2023-04-02T06:15:01.616Z,46.9
2023-04-02T06:20:01.044Z,46.9
2023-04-02T06:25:02.069Z,47.0
2023-04-02T06:30:02.306Z,47.0
2023-04-02T06:35:02.247Z,47.0
2023-04-02T06:45:01.570Z,47.1
2023-04-02T06:50:03.011Z,47.1
2023-04-02T06:55:01.258Z,47.1
2023-04-02T07:05:01.267Z,47.2
2023-04-02T07:10:00.346Z,47.0
2023-04-02T07:15:01.386Z,47.0
2023-04-02T07:20:02.095Z,47.0
2023-04-02T07:25:01.109Z,47.0
2023-04-02T07:35:01.024Z,47.0
2023-04-02T07:40:01.354Z,47.1
2023-04-02T07:45:03.420Z,46.9
2023-04-02T07:50:02.353Z,46.9
2023-04-02T07:55:01.982Z,46.7
2023-04-02T08:05:01.414Z,46.6
2023-04-02T08:10:01.007Z,46.5
2023-04-02T08:15:02.645Z,46.5
2023-04-02T08:25:01.300Z,46.4
2023-04-02T08:30:01.154Z,46.3
2023-04-02T08:35:02.002Z,46.3
2023-04-02T08:40:01.104Z,46.2
2023-04-02T08:45:23.333Z,46.2
2023-04-02T08:50:01.428Z,46.2
2023-04-02T08:55:01.134Z,46.2
2023-04-02T09:00:02.805Z,46.2
2023-04-02T09:05:01.185Z,46.1
2023-04-02T09:10:01.968Z,46.0
2023-04-02T09:15:02.583Z,46.0
2023-04-02T09:25:02.147Z,46.0
2023-04-02T09:30:01.766Z,46.0
2023-04-02T09:35:09.568Z,46.0
2023-04-02T09:45:01.794Z,45.9
2023-04-02T09:50:00.950Z,45.9
2023-04-02T09:55:01.147Z,45.8
2023-04-02T10:05:01.359Z,46.6
2023-04-02T10:10:00.905Z,46.5
2023-04-02T10:15:01.790Z,47.1
2023-04-02T10:25:00.827Z,47.5
2023-04-02T10:30:01.052Z,47.9
2023-04-02T10:35:01.666Z,48.1
2023-04-02T10:45:00.901Z,47.6
2023-04-02T10:50:00.884Z,47.3
2023-04-02T10:55:01.661Z,47.3
2023-04-02T11:00:02.060Z,47.5
2023-04-02T11:05:02.278Z,47.3
2023-04-02T11:10:03.031Z,47.4
2023-04-02T11:15:01.717Z,47.4
2023-04-02T11:20:01.287Z,47.4
2023-04-02T11:25:01.048Z,47.2
2023-04-02T11:30:02.684Z,46.7
2023-04-02T11:35:07.847Z,46.9
2023-04-02T11:45:02.160Z,46.6
2023-04-02T11:55:01.687Z,46.3
2023-04-02T12:00:05.855Z,46.0
2023-04-02T12:05:03.688Z,46.8
2023-04-02T12:10:01.218Z,46.5
2023-04-02T12:15:01.622Z,46.9
2023-04-02T12:20:06.021Z,46.9
2023-04-02T12:25:01.364Z,47.0
2023-04-02T12:30:01.883Z,46.6
2023-04-02T12:35:01.119Z,46.2
2023-04-02T12:40:01.443Z,45.9
2023-04-02T12:45:00.341Z,46.3
2023-04-02T12:50:02.740Z,46.8
2023-04-02T12:55:01.347Z,44.7
2023-04-02T13:05:01.391Z,43.3
2023-04-02T13:10:01.071Z,42.7
2023-04-02T13:15:04.214Z,42.3
2023-04-02T13:25:02.057Z,41.7
2023-04-02T13:30:02.877Z,42.8
2023-04-02T13:35:01.929Z,43.5
2023-04-02T13:45:03.948Z,43.9
2023-04-02T13:50:03.492Z,44.4
2023-04-02T13:55:02.798Z,44.9
2023-04-02T14:00:07.793Z,45.1
2023-04-02T14:05:01.477Z,45.1
2023-04-02T14:10:01.561Z,45.0
2023-04-02T14:15:01.555Z,45.1
2023-04-02T14:25:01.734Z,44.4
2023-04-02T14:30:00.991Z,43.9
2023-04-02T14:35:02.279Z,44.1
2023-04-02T14:40:00.738Z,44.3
2023-04-02T14:45:02.569Z,43.8
2023-04-02T14:50:02.218Z,43.4
2023-04-02T14:55:01.661Z,43.8
2023-04-02T15:05:01.931Z,43.3
2023-04-02T15:10:02.203Z,43.2
2023-04-02T15:15:01.124Z,43.5
2023-04-02T15:25:01.455Z,43.6
2023-04-02T15:35:01.632Z,44.2
2023-04-02T15:45:00.333Z,43.9
2023-04-02T15:50:01.513Z,43.6
2023-04-02T15:55:01.092Z,43.9
2023-04-02T16:05:01.509Z,41.6
2023-04-02T16:10:01.085Z,40.4
2023-04-02T16:15:03.439Z,38.9
2023-04-02T16:20:02.537Z,38.9
2023-04-02T16:25:01.932Z,38.5
2023-04-02T16:30:01.356Z,38.5
2023-04-02T16:35:33.364Z,39.5
2023-04-02T16:45:03.446Z,40.9
2023-04-02T16:50:02.307Z,41.2
2023-04-02T16:55:03.203Z,41.6
2023-04-02T17:05:01.116Z,42.5
2023-04-02T17:10:03.323Z,42.8
2023-04-02T17:15:01.220Z,43.0
2023-04-02T17:25:01.896Z,43.3
2023-04-02T17:30:02.396Z,43.5
2023-04-02T17:35:02.136Z,43.6
2023-04-02T17:45:01.213Z,44.1
2023-04-02T17:50:01.761Z,44.3
2023-04-02T17:55:01.171Z,44.4
2023-04-02T18:00:01.211Z,44.6
2023-04-02T18:05:01.539Z,44.7
2023-04-02T18:10:00.896Z,43.7
2023-04-02T18:15:01.352Z,41.2
2023-04-02T18:25:01.555Z,36.9
2023-04-02T18:30:01.383Z,36.5
2023-04-02T18:35:03.565Z,38.2
2023-04-02T18:45:01.088Z,40.0
2023-04-02T18:50:01.054Z,40.4
2023-04-02T18:55:01.367Z,40.8
2023-04-02T19:05:01.282Z,41.2
2023-04-02T19:15:01.415Z,41.3
2023-04-02T19:20:01.340Z,41.3
2023-04-02T19:25:01.533Z,41.5
2023-04-02T19:35:04.933Z,41.6
2023-04-02T19:45:01.380Z,41.8
2023-04-02T19:50:01.172Z,41.9
2023-04-02T19:55:01.579Z,41.9
2023-04-02T20:05:03.443Z,42.0
2023-04-02T20:10:00.337Z,42.1
2023-04-02T20:15:01.896Z,42.0
2023-04-02T20:20:01.126Z,42.1
2023-04-02T20:25:01.162Z,42.2
2023-04-02T20:35:01.286Z,42.2
2023-04-02T20:45:01.591Z,42.3
2023-04-02T20:50:01.174Z,42.3
2023-04-02T20:55:01.647Z,42.4
2023-04-02T21:05:01.301Z,42.5
2023-04-02T21:15:03.213Z,42.6
2023-04-02T21:25:01.217Z,42.7
2023-04-02T21:35:01.314Z,42.7
2023-04-02T21:40:01.733Z,42.7
2023-04-02T21:45:01.604Z,42.7
2023-04-02T21:50:01.164Z,42.8
2023-04-02T21:55:01.917Z,42.7
2023-04-02T22:00:01.347Z,42.8
2023-04-02T22:05:01.339Z,42.8
2023-04-02T22:10:01.582Z,42.8
2023-04-02T22:15:01.246Z,42.8
2023-04-02T22:25:03.457Z,42.9
2023-04-02T22:30:01.622Z,42.9
2023-04-02T22:35:01.499Z,41.9
2023-04-02T22:45:01.973Z,40.8
2023-04-02T22:50:01.287Z,40.3
2023-04-02T22:55:00.317Z,40.2
2023-04-02T23:05:01.130Z,39.6
2023-04-02T23:10:05.900Z,39.2
2023-04-02T23:15:01.139Z,39.1
2023-04-02T23:25:01.511Z,38.8
2023-04-02T23:30:02.449Z,38.5
2023-04-02T23:35:01.066Z,38.4
2023-04-02T23:45:01.464Z,37.8
2023-04-02T23:50:02.038Z,37.6
2023-04-02T23:55:01.904Z,37.4
